createdAt,value
2019-03-21T00:00:33.276Z,70.60
2019-03-21T00:03:01.712Z,69.50
2019-03-21T00:05:32.010Z,69.10
2019-03-21T00:08:00.457Z,69.70
2019-03-21T00:10:31.989Z,69.90
2019-03-21T00:13:00.504Z,70.50
2019-03-21T00:15:34.727Z,70.90
2019-03-21T00:18:05.829Z,71.60
2019-03-21T00:20:34.284Z,72.30
2019-03-21T00:23:02.741Z,72.60
2019-03-21T00:25:31.296Z,72.60
2019-03-21T00:27:59.842Z,72.60
2019-03-21T00:30:28.724Z,72.70
2019-03-21T00:32:57.643Z,72.90
2019-03-21T00:35:26.104Z,73.50
2019-03-21T00:37:54.637Z,73.60
2019-03-21T00:40:38.131Z,73.50
2019-03-21T00:43:09.151Z,73.60
2019-03-21T00:45:37.592Z,74.40
2019-03-21T00:48:08.876Z,74.00
2019-03-21T00:50:37.328Z,73.60
2019-03-21T00:53:05.828Z,74.10
2019-03-21T00:55:39.780Z,74.10
2019-03-21T00:58:08.372Z,74.20
2019-03-21T01:00:49.096Z,74.20
2019-03-21T01:03:17.605Z,73.90
2019-03-21T01:05:46.049Z,74.20
2019-03-21T01:08:14.500Z,74.20
2019-03-21T01:10:42.942Z,74.30
2019-03-21T01:13:11.408Z,74.50
2019-03-21T01:15:39.848Z,74.70
2019-03-21T01:18:08.303Z,74.70
2019-03-21T01:20:36.756Z,74.90
2019-03-21T01:23:05.201Z,74.90
2019-03-21T01:25:51.590Z,75.00
2019-03-21T01:28:20.054Z,75.30
2019-03-21T01:30:48.494Z,75.30
2019-03-21T01:33:16.957Z,75.20
2019-03-21T01:35:45.412Z,75.20
2019-03-21T01:38:13.862Z,75.20
2019-03-21T01:40:51.536Z,75.60
2019-03-21T01:43:20.528Z,75.60
2019-03-21T01:45:48.971Z,75.30
2019-03-21T01:48:17.436Z,75.60
2019-03-21T01:50:45.888Z,75.70
2019-03-21T01:53:14.528Z,75.70
2019-03-21T01:55:42.968Z,75.60
2019-03-21T01:58:11.407Z,75.80
2019-03-21T02:00:42.997Z,75.10
2019-03-21T02:03:11.467Z,75.60
2019-03-21T02:05:40.036Z,75.80
2019-03-21T02:08:08.483Z,76.10
2019-03-21T02:10:37.000Z,75.90
2019-03-21T02:13:05.534Z,76.10
2019-03-21T02:15:33.971Z,76.40
2019-03-21T02:18:02.429Z,76.30
2019-03-21T02:20:30.879Z,76.50
2019-03-21T02:22:59.395Z,76.40
2019-03-21T02:25:33.948Z,76.50
2019-03-21T02:28:02.433Z,76.40
2019-03-21T02:30:50.148Z,76.70
2019-03-21T02:33:27.665Z,76.50
2019-03-21T02:35:56.209Z,76.70
2019-03-21T02:38:24.653Z,76.70
2019-03-21T02:41:01.979Z,76.80
2019-03-21T02:43:30.434Z,77.00
2019-03-21T02:45:58.944Z,76.90
2019-03-21T02:48:27.412Z,77.10
2019-03-21T02:50:55.865Z,77.10
2019-03-21T02:53:24.307Z,77.20
2019-03-21T02:55:52.761Z,76.70
2019-03-21T02:58:21.210Z,77.10
2019-03-21T03:00:49.679Z,77.30
2019-03-21T03:03:18.188Z,76.90
2019-03-21T03:05:46.709Z,76.90
2019-03-21T03:08:15.167Z,77.60
2019-03-21T03:10:49.290Z,78.70
2019-03-21T03:13:17.822Z,77.80
2019-03-21T03:15:46.402Z,77.70
2019-03-21T03:18:22.394Z,78.00
2019-03-21T03:20:50.909Z,77.70
2019-03-21T03:23:19.463Z,78.10
2019-03-21T03:25:50.979Z,78.40
2019-03-21T03:28:29.170Z,78.20
2019-03-21T03:30:58.746Z,78.60
2019-03-21T03:33:28.021Z,78.70
2019-03-21T03:35:56.553Z,78.60
2019-03-21T03:38:25.085Z,78.70
2019-03-21T03:41:04.827Z,78.10
2019-03-21T03:43:33.328Z,78.60
2019-03-21T03:46:01.846Z,78.40
2019-03-21T03:48:30.348Z,78.50
2019-03-21T03:50:58.816Z,78.70
2019-03-21T03:53:27.332Z,79.50
2019-03-21T03:55:55.860Z,79.20
2019-03-21T03:58:26.107Z,79.30
2019-03-21T04:00:54.552Z,79.30
2019-03-21T04:03:23.556Z,79.10
2019-03-21T04:05:52.092Z,79.00
2019-03-21T04:08:20.545Z,79.00
2019-03-21T04:10:54.213Z,79.10
2019-03-21T04:13:22.672Z,78.70
2019-03-21T04:15:53.111Z,79.20
2019-03-21T04:18:23.426Z,79.20
2019-03-21T04:21:03.885Z,78.90
2019-03-21T04:23:32.347Z,79.20
2019-03-21T04:26:26.779Z,79.80
2019-03-21T04:28:55.261Z,79.90
2019-03-21T04:31:23.711Z,80.60
2019-03-21T04:33:55.102Z,80.00
2019-03-21T04:36:23.554Z,79.80
2019-03-21T04:38:52.022Z,79.80
2019-03-21T04:41:20.532Z,80.00
2019-03-21T04:43:48.980Z,80.30
2019-03-21T04:46:17.429Z,80.00
2019-03-21T04:48:45.876Z,80.10
2019-03-21T04:51:14.320Z,79.90
2019-03-21T04:53:42.880Z,79.70
2019-03-21T04:56:11.322Z,80.00
2019-03-21T04:58:39.772Z,80.10
2019-03-21T05:01:08.232Z,79.70
2019-03-21T05:03:36.677Z,80.00
2019-03-21T05:06:05.232Z,80.10
2019-03-21T05:08:33.691Z,80.20
2019-03-21T05:11:02.228Z,80.30
2019-03-21T05:13:30.690Z,80.80
2019-03-21T05:15:59.152Z,80.90
2019-03-21T05:18:45.512Z,80.80
2019-03-21T05:21:20.128Z,80.50
2019-03-21T05:23:48.604Z,80.80
2019-03-21T05:26:17.130Z,80.60
2019-03-21T05:28:45.597Z,80.90
2019-03-21T05:31:23.272Z,80.50
2019-03-21T05:33:51.752Z,80.90
2019-03-21T05:36:20.267Z,81.20
2019-03-21T05:38:48.732Z,81.60
2019-03-21T05:41:17.194Z,81.60
2019-03-21T05:43:48.743Z,81.60
2019-03-21T05:46:26.604Z,81.30
2019-03-21T05:48:48.924Z,81.20
2019-03-21T05:51:17.448Z,81.30
2019-03-21T05:53:45.924Z,81.20
2019-03-21T05:56:14.383Z,81.60
2019-03-21T05:58:42.830Z,80.80
2019-03-21T06:01:12.427Z,81.10
2019-03-21T06:03:51.273Z,80.80
2019-03-21T06:06:22.826Z,81.10
2019-03-21T06:08:51.286Z,80.90
2019-03-21T06:11:20.216Z,80.60
2019-03-21T06:13:48.668Z,80.70
2019-03-21T06:16:17.129Z,79.50
2019-03-21T06:18:51.608Z,79.10
2019-03-21T06:21:41.264Z,78.80
2019-03-21T06:24:29.135Z,78.60
2019-03-21T06:27:14.906Z,78.20
2019-03-21T06:29:42.919Z,77.90
2019-03-21T06:32:13.029Z,78.00
2019-03-21T06:34:41.557Z,77.70
2019-03-21T06:37:10.009Z,77.00
2019-03-21T06:39:39.287Z,76.70
2019-03-21T06:42:07.815Z,76.20
2019-03-21T06:44:36.286Z,75.90
2019-03-21T06:47:05.106Z,74.90
2019-03-21T06:49:33.647Z,74.00
2019-03-21T06:52:02.089Z,73.50
2019-03-21T06:54:30.543Z,73.50
2019-03-21T06:56:59.059Z,73.40
2019-03-21T06:59:29.069Z,72.90
2019-03-21T07:01:57.583Z,72.70
2019-03-21T07:04:26.035Z,72.10
2019-03-21T07:06:54.481Z,71.60
2019-03-21T07:09:22.923Z,71.50
2019-03-21T07:11:51.383Z,71.30
2019-03-21T07:14:19.846Z,70.80
2019-03-21T07:16:48.319Z,69.30
2019-03-21T07:19:16.838Z,69.80
2019-03-21T07:21:45.367Z,69.80
2019-03-21T07:24:13.888Z,69.20
2019-03-21T07:26:42.344Z,69.20
2019-03-21T07:29:10.788Z,69.30
2019-03-21T07:31:39.233Z,68.70
2019-03-21T07:34:10.034Z,68.50
2019-03-21T07:36:37.837Z,67.90
2019-03-21T07:39:07.897Z,67.70
2019-03-21T07:41:36.361Z,67.80
2019-03-21T07:44:04.870Z,67.10
2019-03-21T07:46:33.327Z,66.60
2019-03-21T07:49:01.803Z,66.30
2019-03-21T07:51:32.270Z,66.20
2019-03-21T07:54:00.424Z,65.20
2019-03-21T07:56:28.899Z,64.80
2019-03-21T07:58:57.931Z,64.70
2019-03-21T08:01:26.693Z,64.80
2019-03-21T08:03:55.201Z,64.60
2019-03-21T08:06:23.675Z,63.80
2019-03-21T08:08:52.212Z,63.40
2019-03-21T08:11:20.675Z,61.70
2019-03-21T08:13:49.177Z,61.00
2019-03-21T08:16:17.620Z,60.70
2019-03-21T08:18:46.116Z,60.90
2019-03-21T08:21:14.599Z,60.00
2019-03-21T08:23:43.060Z,59.70
2019-03-21T08:26:11.499Z,59.30
2019-03-21T08:28:39.948Z,58.10
2019-03-21T08:31:11.472Z,57.20
2019-03-21T08:33:39.920Z,57.50
2019-03-21T08:36:08.375Z,57.40
2019-03-21T08:38:36.815Z,56.70
2019-03-21T08:41:05.269Z,55.50
2019-03-21T08:43:33.729Z,54.30
2019-03-21T08:46:02.263Z,52.80
2019-03-21T08:48:30.748Z,53.60
2019-03-21T08:51:07.647Z,52.50
2019-03-21T08:53:29.446Z,51.80
2019-03-21T08:55:57.888Z,51.20
2019-03-21T08:58:26.344Z,51.20
2019-03-21T09:00:54.794Z,52.30
2019-03-21T09:03:23.227Z,50.00
2019-03-21T09:05:51.759Z,50.70
2019-03-21T09:08:20.223Z,50.40
2019-03-21T09:10:48.667Z,49.20
2019-03-21T09:13:17.173Z,49.80
2019-03-21T09:15:45.628Z,49.30
2019-03-21T09:18:14.087Z,49.00
2019-03-21T09:20:42.549Z,49.10
2019-03-21T09:23:10.994Z,47.80
2019-03-21T09:25:39.442Z,48.50
2019-03-21T09:28:07.957Z,47.20
2019-03-21T09:30:36.411Z,46.70
2019-03-21T09:33:04.921Z,46.40
2019-03-21T09:35:33.370Z,46.50
2019-03-21T09:38:01.811Z,47.40
2019-03-21T09:40:30.249Z,45.90
2019-03-21T09:42:58.710Z,45.90
2019-03-21T09:45:27.224Z,46.20
2019-03-21T09:47:55.685Z,46.60
2019-03-21T09:50:26.937Z,46.70
2019-03-21T09:52:55.656Z,46.70
2019-03-21T09:55:24.167Z,46.40
2019-03-21T09:57:52.773Z,45.90
2019-03-21T10:00:37.162Z,45.60
2019-03-21T10:03:06.280Z,45.40
2019-03-21T10:05:34.793Z,45.90
2019-03-21T10:08:03.501Z,44.80
2019-03-21T10:10:33.403Z,45.00
2019-03-21T10:13:01.881Z,42.70
2019-03-21T10:15:30.449Z,43.80
2019-03-21T10:17:58.892Z,42.60
2019-03-21T10:20:27.354Z,42.90
2019-03-21T10:22:55.792Z,42.50
2019-03-21T10:25:26.529Z,42.40
2019-03-21T10:27:54.497Z,42.50
2019-03-21T10:30:31.856Z,42.50
2019-03-21T10:33:00.312Z,36.10
2019-03-21T10:35:28.768Z,30.00
2019-03-21T10:37:57.287Z,29.50
2019-03-21T10:40:25.808Z,28.10
2019-03-21T10:42:54.268Z,25.20
2019-03-21T10:45:22.733Z,23.60
2019-03-21T10:47:51.228Z,22.50
2019-03-21T10:50:36.413Z,22.10
2019-03-21T10:53:05.838Z,21.20
2019-03-21T10:55:34.356Z,21.60
2019-03-21T10:58:03.000Z,20.80
2019-03-21T11:00:31.481Z,21.80
2019-03-21T11:03:00.065Z,20.80
2019-03-21T11:05:28.524Z,20.80
2019-03-21T11:07:56.996Z,20.20
2019-03-21T11:10:25.449Z,20.10
2019-03-21T11:12:53.904Z,20.30
2019-03-21T11:15:22.415Z,20.00
2019-03-21T11:17:51.200Z,20.00
2019-03-21T11:20:30.584Z,21.40
2019-03-21T11:22:59.172Z,21.90
2019-03-21T11:25:27.836Z,20.80
2019-03-21T11:27:56.360Z,19.80
2019-03-21T11:30:38.426Z,20.20
2019-03-21T11:33:07.117Z,20.90
2019-03-21T11:35:35.578Z,21.30
2019-03-21T11:38:05.393Z,22.20
2019-03-21T11:40:34.052Z,22.10
2019-03-21T11:43:03.586Z,21.20
2019-03-21T11:45:32.122Z,20.50
2019-03-21T11:48:00.639Z,19.80
2019-03-21T11:50:29.093Z,19.50
2019-03-21T11:52:57.547Z,21.40
2019-03-21T11:55:26.006Z,21.60
2019-03-21T11:57:54.460Z,21.60
2019-03-21T12:00:22.915Z,21.20
2019-03-21T12:02:51.437Z,20.90
2019-03-21T12:05:19.893Z,19.80
2019-03-21T12:07:48.349Z,19.40
2019-03-21T12:10:17.265Z,18.40
2019-03-21T12:12:45.861Z,20.20
2019-03-21T12:15:14.517Z,21.00
2019-03-21T12:17:43.025Z,21.30
2019-03-21T12:20:22.460Z,22.70
2019-03-21T12:22:50.912Z,21.60
2019-03-21T12:25:19.390Z,20.00
2019-03-21T12:27:47.921Z,20.00
2019-03-21T12:30:19.449Z,21.70
2019-03-21T12:32:48.827Z,20.50
2019-03-21T12:35:17.293Z,21.90
2019-03-21T12:37:45.750Z,22.20
2019-03-21T12:40:14.264Z,20.70
2019-03-21T12:42:42.733Z,20.70
2019-03-21T12:45:11.266Z,20.40
2019-03-21T12:47:39.820Z,20.30
2019-03-21T12:50:09.013Z,21.00
2019-03-21T12:55:08.265Z,19.80
2019-03-21T12:57:36.721Z,19.80
2019-03-21T13:00:13.490Z,19.00
2019-03-21T13:02:43.189Z,18.50
2019-03-21T13:05:29.426Z,19.80
2019-03-21T13:07:13.468Z,19.70
2019-03-21T13:07:57.944Z,19.70
2019-03-21T13:10:26.418Z,19.90
2019-03-21T13:12:54.872Z,20.50
2019-03-21T13:15:29.852Z,21.10
2019-03-21T13:17:53.500Z,20.30
2019-03-21T13:20:21.944Z,20.70
2019-03-21T13:22:53.352Z,21.10
2019-03-21T13:25:20.609Z,21.00
2019-03-21T13:27:49.071Z,19.90
2019-03-21T13:30:18.138Z,19.40
2019-03-21T13:32:47.172Z,19.00
2019-03-21T13:35:15.807Z,19.10
2019-03-21T13:37:44.331Z,18.60
2019-03-21T13:40:12.896Z,18.80
2019-03-21T13:42:41.368Z,18.60
2019-03-21T13:45:10.724Z,18.40
2019-03-21T13:47:39.191Z,18.40
2019-03-21T13:50:08.673Z,19.30
2019-03-21T13:52:37.138Z,18.60
2019-03-21T13:55:07.644Z,18.80
2019-03-21T13:57:36.162Z,19.00
2019-03-21T14:00:07.949Z,19.40
2019-03-21T14:02:36.433Z,19.40
2019-03-21T14:05:07.615Z,20.50
2019-03-21T14:07:36.205Z,19.60
2019-03-21T14:10:06.959Z,20.20
2019-03-21T14:12:35.423Z,19.20
2019-03-21T14:15:09.008Z,19.00
2019-03-21T14:17:37.476Z,20.50
2019-03-21T14:20:10.771Z,21.50
2019-03-21T14:22:39.278Z,21.60
2019-03-21T14:25:08.670Z,22.20
2019-03-21T14:27:37.137Z,21.50
2019-03-21T14:30:08.675Z,20.80
2019-03-21T14:32:36.406Z,22.20
2019-03-21T14:35:07.367Z,22.20
2019-03-21T14:37:35.913Z,22.40
2019-03-21T14:40:06.605Z,22.50
2019-03-21T14:42:35.132Z,21.90
2019-03-21T14:45:05.748Z,21.10
2019-03-21T14:47:36.473Z,21.10
2019-03-21T14:50:07.458Z,20.70
2019-03-21T14:52:35.989Z,21.30
2019-03-21T14:55:06.278Z,21.10
2019-03-21T14:57:34.728Z,22.70
2019-03-21T15:00:04.842Z,22.00
2019-03-21T15:02:33.365Z,22.20
2019-03-21T15:05:07.568Z,22.20
2019-03-21T15:07:36.483Z,21.00
2019-03-21T15:10:10.845Z,20.50
2019-03-21T15:12:39.354Z,21.60
2019-03-21T15:15:10.869Z,21.90
2019-03-21T15:17:39.452Z,21.10
2019-03-21T15:20:10.975Z,20.20
2019-03-21T15:22:39.500Z,20.90
2019-03-21T15:25:09.298Z,20.70
2019-03-21T15:27:37.747Z,21.50
2019-03-21T15:30:12.362Z,22.20
2019-03-21T15:32:41.955Z,21.30
2019-03-21T15:35:12.272Z,21.90
2019-03-21T15:37:40.725Z,22.40
2019-03-21T15:40:11.891Z,22.70
2019-03-21T15:42:40.348Z,21.20
2019-03-21T15:45:22.765Z,22.00
2019-03-21T15:47:47.655Z,22.40
2019-03-21T15:50:33.620Z,22.70
2019-03-21T15:53:02.155Z,23.10
2019-03-21T15:55:30.737Z,22.80
2019-03-21T15:57:59.200Z,22.90
2019-03-21T16:00:41.282Z,22.60
2019-03-21T16:03:09.818Z,23.40
2019-03-21T16:05:39.275Z,24.80
2019-03-21T16:08:09.145Z,25.40
2019-03-21T16:10:38.103Z,25.90
2019-03-21T16:13:06.614Z,27.00
2019-03-21T16:15:35.196Z,26.50
2019-03-21T16:18:03.913Z,27.10
2019-03-21T16:20:32.375Z,27.70
2019-03-21T16:23:00.896Z,27.30
2019-03-21T16:25:29.443Z,27.60
2019-03-21T16:27:57.895Z,26.70
2019-03-21T16:30:26.437Z,26.50
2019-03-21T16:32:54.955Z,26.80
2019-03-21T16:35:23.560Z,27.10
2019-03-21T16:37:52.018Z,27.90
2019-03-21T16:40:20.840Z,28.30
2019-03-21T16:42:49.321Z,29.20
2019-03-21T16:45:20.962Z,28.30
2019-03-21T16:47:48.479Z,29.50
2019-03-21T16:50:16.983Z,28.90
2019-03-21T16:52:45.477Z,28.80
2019-03-21T16:55:17.110Z,28.60
2019-03-21T16:57:45.582Z,28.90
2019-03-21T17:00:18.917Z,29.40
2019-03-21T17:02:48.008Z,29.90
2019-03-21T17:05:16.541Z,29.90
2019-03-21T17:07:45.006Z,29.90
2019-03-21T17:10:18.029Z,29.70
2019-03-21T17:12:46.512Z,29.70
2019-03-21T17:15:15.129Z,29.80
2019-03-21T17:17:43.632Z,30.70
2019-03-21T17:20:12.975Z,30.50
2019-03-21T17:22:41.520Z,31.20
2019-03-21T17:25:10.970Z,31.10
2019-03-21T17:27:39.533Z,31.30
2019-03-21T17:30:11.175Z,32.10
2019-03-21T17:32:39.645Z,32.40
2019-03-21T17:35:08.241Z,32.90
2019-03-21T17:37:36.740Z,32.70
2019-03-21T17:40:10.883Z,32.90
2019-03-21T17:42:39.412Z,32.70
2019-03-21T17:45:11.068Z,33.20
2019-03-21T17:47:39.564Z,33.10
2019-03-21T17:50:09.260Z,33.10
2019-03-21T17:52:37.712Z,32.90
2019-03-21T17:55:07.008Z,33.30
2019-03-21T17:57:35.461Z,33.60
2019-03-21T18:00:07.011Z,34.10
2019-03-21T18:02:35.528Z,33.80
2019-03-21T18:05:06.729Z,33.50
2019-03-21T18:07:35.269Z,33.40
2019-03-21T18:10:06.918Z,33.70
2019-03-21T18:12:35.364Z,33.70
2019-03-21T18:15:05.726Z,34.30
2019-03-21T18:17:34.204Z,35.20
2019-03-21T18:20:02.730Z,35.50
2019-03-21T18:22:31.239Z,35.60
2019-03-21T18:24:59.680Z,36.10
2019-03-21T18:27:28.143Z,36.20
2019-03-21T18:29:56.597Z,36.40
2019-03-21T18:32:25.144Z,36.60
2019-03-21T18:34:53.599Z,37.30
2019-03-21T18:37:22.130Z,37.70
2019-03-21T18:39:50.663Z,38.10
2019-03-21T18:42:19.147Z,38.30
2019-03-21T18:44:50.358Z,38.70
2019-03-21T18:47:17.771Z,39.00
2019-03-21T18:49:46.227Z,46.60
2019-03-21T18:52:14.692Z,42.70
2019-03-21T18:54:43.150Z,42.40
2019-03-21T18:57:11.613Z,41.00
2019-03-21T18:59:40.154Z,39.60
2019-03-21T19:02:08.685Z,39.40
2019-03-21T19:04:37.152Z,39.40
2019-03-21T19:07:05.771Z,38.80
2019-03-21T19:09:34.209Z,39.00
2019-03-21T19:12:02.664Z,39.40
2019-03-21T19:14:31.112Z,41.50
2019-03-21T19:16:59.588Z,42.10
2019-03-21T19:19:28.036Z,44.30
2019-03-21T19:21:56.489Z,44.60
2019-03-21T19:24:25.024Z,44.80
2019-03-21T19:26:53.473Z,44.40
2019-03-21T19:29:21.928Z,44.30
2019-03-21T19:31:50.400Z,45.40
2019-03-21T19:34:18.868Z,46.40
2019-03-21T19:36:47.332Z,46.50
2019-03-21T19:39:15.818Z,46.20
2019-03-21T19:41:44.351Z,46.20
2019-03-21T19:44:12.883Z,45.70
2019-03-21T19:46:41.340Z,46.30
2019-03-21T19:49:09.779Z,44.80
2019-03-21T19:51:38.244Z,45.60
2019-03-21T19:54:06.769Z,46.10
2019-03-21T19:56:35.223Z,46.20
2019-03-21T19:59:03.676Z,47.10
2019-03-21T20:01:32.185Z,47.30
2019-03-21T20:04:00.637Z,47.90
2019-03-21T20:06:29.119Z,48.50
2019-03-21T20:08:57.582Z,49.00
2019-03-21T20:11:26.027Z,49.30
2019-03-21T20:13:54.509Z,49.70
2019-03-21T20:16:22.954Z,49.70
2019-03-21T20:18:51.414Z,49.80
2019-03-21T20:21:19.868Z,50.40
2019-03-21T20:23:48.408Z,50.40
2019-03-21T20:26:16.856Z,50.10
2019-03-21T20:28:45.320Z,50.20
2019-03-21T20:31:14.337Z,50.30
2019-03-21T20:33:42.790Z,50.90
2019-03-21T20:36:11.243Z,51.00
2019-03-21T20:38:39.696Z,51.20
2019-03-21T20:41:08.156Z,51.60
2019-03-21T20:43:36.610Z,51.40
2019-03-21T20:46:05.064Z,51.80
2019-03-21T20:48:32.446Z,52.30
2019-03-21T20:51:10.729Z,52.10
2019-03-21T20:53:38.311Z,52.10
2019-03-21T20:56:06.765Z,52.70
2019-03-21T20:58:35.230Z,53.30
2019-03-21T21:01:04.060Z,53.60
2019-03-21T21:03:32.517Z,53.90
2019-03-21T21:06:01.029Z,54.20
2019-03-21T21:08:29.478Z,54.30
2019-03-21T21:10:59.543Z,54.40
2019-03-21T21:13:31.073Z,54.40
2019-03-21T21:15:59.529Z,54.50
2019-03-21T21:18:27.971Z,54.50
2019-03-21T21:20:56.433Z,55.00
2019-03-21T21:23:24.893Z,55.30
2019-03-21T21:26:04.768Z,55.90
2019-03-21T21:28:23.538Z,56.00
2019-03-21T21:30:51.998Z,56.40
2019-03-21T21:33:20.452Z,56.50
2019-03-21T21:35:48.915Z,56.50
2019-03-21T21:38:17.449Z,56.90
2019-03-21T21:40:45.930Z,57.20
2019-03-21T21:43:14.389Z,57.30
2019-03-21T21:45:42.846Z,57.10
2019-03-21T21:48:11.362Z,56.40
2019-03-21T21:50:39.815Z,56.10
2019-03-21T21:53:08.273Z,56.20
2019-03-21T21:55:36.755Z,57.20
2019-03-21T21:58:05.288Z,57.40
2019-03-21T22:00:33.775Z,57.60
2019-03-21T22:03:02.246Z,58.10
2019-03-21T22:05:30.748Z,58.40
2019-03-21T22:07:59.220Z,59.00
2019-03-21T22:10:29.529Z,59.30
2019-03-21T22:12:57.833Z,59.50
2019-03-21T22:15:26.312Z,59.90
2019-03-21T22:17:54.760Z,59.80
2019-03-21T22:20:23.233Z,59.40
2019-03-21T22:22:51.712Z,59.40
2019-03-21T22:25:20.215Z,59.20
2019-03-21T22:27:48.664Z,59.00
2019-03-21T22:30:19.171Z,59.50
2019-03-21T22:32:47.764Z,60.00
2019-03-21T22:35:16.296Z,60.40
2019-03-21T22:37:44.740Z,60.90
2019-03-21T22:40:16.276Z,61.80
2019-03-21T22:42:44.722Z,62.00
2019-03-21T22:45:16.417Z,62.60
2019-03-21T22:47:44.859Z,63.40
2019-03-21T22:50:15.548Z,63.40
2019-03-21T22:52:44.444Z,63.30
2019-03-21T22:55:13.327Z,63.70
2019-03-21T22:57:41.785Z,63.90
2019-03-21T23:00:22.389Z,64.30
2019-03-21T23:02:50.919Z,64.70
2019-03-21T23:05:20.106Z,65.40
2019-03-21T23:07:50.249Z,65.70
2019-03-21T23:10:18.695Z,65.90
2019-03-21T23:12:47.172Z,66.00
2019-03-21T23:15:15.760Z,66.30
2019-03-21T23:17:44.210Z,66.60
2019-03-21T23:20:14.610Z,66.30
2019-03-21T23:22:43.125Z,66.60
2019-03-21T23:25:16.613Z,66.70
2019-03-21T23:27:44.870Z,66.60
2019-03-21T23:30:16.027Z,66.60
2019-03-21T23:32:44.474Z,67.10
2019-03-21T23:35:13.596Z,67.20
2019-03-21T23:37:42.044Z,67.20
2019-03-21T23:40:17.654Z,66.60
2019-03-21T23:42:46.171Z,66.80
2019-03-21T23:45:15.083Z,66.10
2019-03-21T23:47:43.872Z,66.80
2019-03-21T23:50:13.759Z,66.90
2019-03-21T23:52:42.296Z,68.40
2019-03-21T23:55:11.248Z,68.70
2019-03-21T23:57:39.687Z,68.70
